createdAt,value
2019-06-10T00:01:33.591Z,3.47
2019-06-10T00:04:07.969Z,3.70
2019-06-10T00:06:36.236Z,5.03
2019-06-10T00:09:08.360Z,3.77
2019-06-10T00:11:40.975Z,5.00
2019-06-10T00:14:11.878Z,4.37
2019-06-10T00:16:42.829Z,3.40
2019-06-10T00:19:14.915Z,4.63
2019-06-10T00:21:45.407Z,4.47
2019-06-10T00:24:15.875Z,3.37
2019-06-10T00:26:46.347Z,5.43
2019-06-10T00:29:16.914Z,6.50
2019-06-10T00:31:47.860Z,4.00
2019-06-10T00:34:20.664Z,5.03
2019-06-10T00:36:51.146Z,3.40
2019-06-10T00:39:22.322Z,4.37
2019-06-10T00:41:53.453Z,4.23
2019-06-10T00:44:25.703Z,3.27
2019-06-10T00:46:57.943Z,3.47
2019-06-10T00:49:28.453Z,3.90
2019-06-10T00:52:01.580Z,3.73
2019-06-10T00:54:32.596Z,3.37
2019-06-10T00:57:04.371Z,4.17
2019-06-10T00:59:36.357Z,4.00
2019-06-10T01:02:08.073Z,3.83
2019-06-10T01:04:40.770Z,4.03
2019-06-10T01:07:14.442Z,4.83
2019-06-10T01:09:43.545Z,3.40
2019-06-10T01:12:14.957Z,3.60
2019-06-10T01:14:45.712Z,4.57
2019-06-10T01:17:17.588Z,3.30
2019-06-10T01:19:50.891Z,4.47
2019-06-10T01:22:22.367Z,5.13
2019-06-10T01:24:53.316Z,2.90
2019-06-10T01:27:23.802Z,4.23
2019-06-10T01:29:54.812Z,4.37
2019-06-10T01:32:25.717Z,5.93
2019-06-10T01:34:56.676Z,7.10
2019-06-10T01:37:27.191Z,7.53
2019-06-10T01:39:57.640Z,7.80
2019-06-10T01:42:30.522Z,7.70
2019-06-10T01:45:01.149Z,8.00
2019-06-10T01:47:32.521Z,7.70
2019-06-10T01:50:02.994Z,7.20
2019-06-10T01:52:33.982Z,6.70
2019-06-10T01:55:07.464Z,7.03
2019-06-10T01:57:38.146Z,6.63
2019-06-10T02:00:17.032Z,6.17
2019-06-10T02:02:44.496Z,8.97
2019-06-10T02:05:15.968Z,8.00
2019-06-10T02:07:46.444Z,5.03
2019-06-10T02:10:18.619Z,6.07
2019-06-10T02:12:50.863Z,5.10
2019-06-10T02:15:22.740Z,7.03
2019-06-10T02:17:54.130Z,5.03
2019-06-10T02:20:25.059Z,4.63
2019-06-10T02:22:55.584Z,5.27
2019-06-10T02:25:26.046Z,6.07
2019-06-10T02:27:56.556Z,4.07
2019-06-10T02:30:40.339Z,5.33
2019-06-10T02:33:02.255Z,6.83
2019-06-10T02:35:43.243Z,8.00
2019-06-10T02:38:04.426Z,7.33
2019-06-10T02:40:36.623Z,6.87
2019-06-10T02:43:09.722Z,6.53
2019-06-10T02:45:40.154Z,6.60
2019-06-10T02:48:13.673Z,6.07
2019-06-10T02:51:06.930Z,7.93
2019-06-10T02:53:37.900Z,7.30
2019-06-10T02:56:12.449Z,4.67
2019-06-10T02:58:44.818Z,6.33
2019-06-10T03:01:16.726Z,4.83
2019-06-10T03:03:49.706Z,4.87
2019-06-10T03:06:23.766Z,4.17
2019-06-10T03:08:55.064Z,5.37
2019-06-10T03:11:29.702Z,4.97
2019-06-10T03:13:56.507Z,5.77
2019-06-10T03:16:33.054Z,5.17
2019-06-10T03:19:03.682Z,5.17
2019-06-10T03:21:34.241Z,5.90
2019-06-10T03:24:05.471Z,7.77
2019-06-10T03:26:36.746Z,7.60
2019-06-10T03:29:07.240Z,6.77
2019-06-10T03:31:43.193Z,6.83
2019-06-10T03:34:14.347Z,8.20
2019-06-10T03:36:42.964Z,6.97
2019-06-10T03:39:14.064Z,6.80
2019-06-10T03:41:45.609Z,5.80
2019-06-10T03:44:16.922Z,6.87
2019-06-10T03:46:47.889Z,6.57
2019-06-10T03:49:19.144Z,8.47
2019-06-10T03:51:49.650Z,5.47
2019-06-10T03:54:24.449Z,5.47
2019-06-10T03:56:52.687Z,6.87
2019-06-10T03:59:24.581Z,5.07
2019-06-10T04:01:57.345Z,4.93
2019-06-10T04:04:28.340Z,5.00
2019-06-10T04:06:58.854Z,4.57
2019-06-10T04:09:29.325Z,4.77
2019-06-10T04:12:02.084Z,5.00
2019-06-10T04:14:32.888Z,4.07
2019-06-10T04:17:03.722Z,5.10
2019-06-10T04:19:35.188Z,5.07
2019-06-10T04:22:06.223Z,3.70
2019-06-10T04:24:36.799Z,6.00
2019-06-10T04:27:07.291Z,5.80
2019-06-10T04:29:37.787Z,7.17
2019-06-10T04:32:08.764Z,5.17
2019-06-10T04:34:39.265Z,5.70
2019-06-10T04:37:12.323Z,4.43
2019-06-10T04:39:42.903Z,5.07
2019-06-10T04:42:13.845Z,5.23
2019-06-10T04:44:44.284Z,5.93
2019-06-10T04:47:14.804Z,5.97
2019-06-10T04:49:45.622Z,4.93
2019-06-10T04:52:16.601Z,5.23
2019-06-10T04:54:47.128Z,6.10
2019-06-10T04:57:18.760Z,6.10
2019-06-10T04:59:50.192Z,6.60
2019-06-10T05:02:23.798Z,5.80
2019-06-10T05:04:53.221Z,7.33
2019-06-10T05:07:27.065Z,5.33
2019-06-10T05:09:56.595Z,5.60
2019-06-10T05:12:28.042Z,6.83
2019-06-10T05:14:58.618Z,5.83
2019-06-10T05:17:31.799Z,6.70
2019-06-10T05:20:02.689Z,6.47
2019-06-10T05:22:33.648Z,4.73
2019-06-10T05:25:04.910Z,6.80
2019-06-10T05:27:36.360Z,5.73
2019-06-10T05:30:07.488Z,4.97
2019-06-10T05:32:38.121Z,6.13
2019-06-10T05:35:08.592Z,6.17
2019-06-10T05:37:39.179Z,5.37
2019-06-10T05:40:12.572Z,9.27
2019-06-10T05:42:42.759Z,6.67
2019-06-10T05:45:13.565Z,5.37
2019-06-10T05:47:44.048Z,7.73
2019-06-10T05:50:14.646Z,6.73
2019-06-10T05:52:45.244Z,5.67
2019-06-10T05:55:16.309Z,7.77
2019-06-10T05:57:46.873Z,6.20
2019-06-10T06:00:17.580Z,5.97
2019-06-10T06:02:48.110Z,6.93
2019-06-10T06:05:19.264Z,5.93
2019-06-10T06:08:02.219Z,5.90
2019-06-10T06:10:23.744Z,5.17
2019-06-10T06:12:54.249Z,6.23
2019-06-10T06:15:25.434Z,5.50
2019-06-10T06:18:07.216Z,7.80
2019-06-10T06:20:29.311Z,5.63
2019-06-10T06:23:02.810Z,5.93
2019-06-10T06:25:42.039Z,6.53
2019-06-10T06:28:05.790Z,8.57
2019-06-10T06:30:37.583Z,5.83
2019-06-10T06:33:09.261Z,5.47
2019-06-10T06:35:43.711Z,6.33
2019-06-10T06:38:13.004Z,6.40
2019-06-10T06:40:43.695Z,7.00
2019-06-10T06:43:14.348Z,5.73
2019-06-10T06:45:44.930Z,5.30
2019-06-10T06:48:16.426Z,6.40
2019-06-10T06:51:02.066Z,7.93
2019-06-10T06:53:31.945Z,7.97
2019-06-10T06:55:56.002Z,5.93
2019-06-10T06:58:26.150Z,7.80
2019-06-10T07:01:09.227Z,7.23
2019-06-10T07:03:29.746Z,6.37
2019-06-10T07:06:02.699Z,9.10
2019-06-10T07:08:36.310Z,5.30
2019-06-10T07:11:07.741Z,5.73
2019-06-10T07:13:43.429Z,5.50
2019-06-10T07:16:13.192Z,4.90
2019-06-10T07:18:49.834Z,5.33
2019-06-10T07:21:17.789Z,5.67
2019-06-10T07:23:48.796Z,4.57
2019-06-10T07:26:22.237Z,5.67
2019-06-10T07:28:53.720Z,4.67
2019-06-10T07:31:27.903Z,4.57
2019-06-10T07:33:57.116Z,4.97
2019-06-10T07:36:32.516Z,6.33
2019-06-10T07:39:03.479Z,5.33
2019-06-10T07:41:37.454Z,6.47
2019-06-10T07:44:08.376Z,6.77
2019-06-10T07:46:39.349Z,7.07
2019-06-10T07:49:09.860Z,5.90
2019-06-10T07:51:52.345Z,7.90
2019-06-10T07:54:23.701Z,8.03
2019-06-10T07:56:55.505Z,6.57
2019-06-10T07:59:25.906Z,8.73
2019-06-10T08:01:57.568Z,7.43
2019-06-10T08:04:27.973Z,7.07
2019-06-10T08:06:58.400Z,5.90
2019-06-10T08:09:28.893Z,5.27
2019-06-10T08:12:03.408Z,4.43
2019-06-10T08:14:32.980Z,6.77
2019-06-10T08:17:03.896Z,6.47
2019-06-10T08:19:38.761Z,8.57
2019-06-10T08:22:06.646Z,8.15
2019-06-10T08:24:37.399Z,5.92
2019-06-10T08:27:07.948Z,5.37
2019-06-10T08:29:38.797Z,7.03
2019-06-10T08:32:09.732Z,8.30
2019-06-10T08:34:43.272Z,6.67
2019-06-10T08:37:13.650Z,5.53
2019-06-10T08:39:45.902Z,4.55
2019-06-10T08:42:18.830Z,4.80
2019-06-10T08:44:50.297Z,3.92
2019-06-10T08:47:22.916Z,6.30
2019-06-10T08:49:54.818Z,8.28
2019-06-10T08:52:25.827Z,6.05
2019-06-10T08:54:56.754Z,6.22
2019-06-10T08:57:27.696Z,6.40
2019-06-10T08:59:58.445Z,6.58
2019-06-10T09:02:28.851Z,8.20
2019-06-10T09:04:59.309Z,6.53
2019-06-10T09:07:32.181Z,5.20
2019-06-10T09:10:03.091Z,8.03
2019-06-10T09:12:36.609Z,7.67
2019-06-10T09:15:06.981Z,6.35
2019-06-10T09:17:39.696Z,5.37
2019-06-10T09:20:12.980Z,5.22
2019-06-10T09:22:48.477Z,5.97
2019-06-10T09:25:18.894Z,6.72
2019-06-10T09:27:51.858Z,5.65
2019-06-10T09:30:23.656Z,5.83
2019-06-10T09:32:56.478Z,5.58
2019-06-10T09:35:26.706Z,5.10
2019-06-10T09:37:57.036Z,7.72
2019-06-10T09:40:50.560Z,6.03
2019-06-10T09:43:23.350Z,5.85
2019-06-10T09:45:56.405Z,6.65
2019-06-10T09:48:26.141Z,7.67
2019-06-10T09:50:58.941Z,4.50
2019-06-10T09:53:39.294Z,5.97
2019-06-10T09:56:04.161Z,5.10
2019-06-10T09:58:35.152Z,3.47
2019-06-10T10:01:05.683Z,3.37
2019-06-10T10:03:36.192Z,3.87
2019-06-10T10:06:14.526Z,4.20
2019-06-10T10:08:39.557Z,6.65
2019-06-10T10:11:12.749Z,3.35
2019-06-10T10:13:46.070Z,5.75
2019-06-10T10:16:16.673Z,4.90
2019-06-10T10:18:52.091Z,5.40
2019-06-10T10:21:22.140Z,5.65
2019-06-10T10:24:06.575Z,5.10
2019-06-10T10:26:24.641Z,4.42
2019-06-10T10:28:57.040Z,2.35
2019-06-10T10:31:28.538Z,3.45
2019-06-10T10:34:02.555Z,5.30
2019-06-10T10:36:33.518Z,4.97
2019-06-10T10:39:07.788Z,5.97
2019-06-10T10:41:39.093Z,3.50
2019-06-10T10:44:10.050Z,2.87
2019-06-10T10:46:40.626Z,5.22
2019-06-10T10:49:13.338Z,5.22
2019-06-10T10:51:43.299Z,2.60
2019-06-10T10:54:25.530Z,3.83
2019-06-10T10:56:47.754Z,3.02
2019-06-10T10:59:18.504Z,3.70
2019-06-10T11:01:49.546Z,2.47
2019-06-10T11:04:23.135Z,3.80
2019-06-10T11:06:55.646Z,3.08
2019-06-10T11:09:27.465Z,3.17
2019-06-10T11:12:03.375Z,2.70
2019-06-10T11:14:34.839Z,5.10
2019-06-10T11:17:05.329Z,4.58
2019-06-10T11:19:35.840Z,2.98
2019-06-10T11:22:06.877Z,5.42
2019-06-10T11:24:41.187Z,3.17
2019-06-10T11:27:12.601Z,2.92
2019-06-10T11:29:43.059Z,5.33
2019-06-10T11:32:14.620Z,4.87
2019-06-10T11:34:45.825Z,4.08
2019-06-10T11:37:17.246Z,4.25
2019-06-10T11:39:48.118Z,4.00
2019-06-10T11:42:19.273Z,2.98
2019-06-10T11:44:55.906Z,3.52
2019-06-10T11:47:24.459Z,2.20
2019-06-10T11:49:56.490Z,3.27
2019-06-10T11:52:27.374Z,3.12
2019-06-10T11:55:10.651Z,5.05
2019-06-10T11:57:32.821Z,3.60
2019-06-10T12:00:08.868Z,4.60
2019-06-10T12:02:35.501Z,4.40
2019-06-10T12:05:06.819Z,4.30
2019-06-10T12:07:37.337Z,4.53
2019-06-10T12:10:12.786Z,2.67
2019-06-10T12:12:43.753Z,4.75
2019-06-10T12:15:15.884Z,4.72
2019-06-10T12:17:51.205Z,6.55
2019-06-10T12:20:19.060Z,5.70
2019-06-10T12:22:49.597Z,7.00
2019-06-10T12:25:34.794Z,5.75
2019-06-10T12:27:55.924Z,8.43
2019-06-10T12:30:25.232Z,6.87
2019-06-10T12:32:58.880Z,8.15
2019-06-10T12:35:27.834Z,7.92
2019-06-10T12:38:00.129Z,5.95
2019-06-10T12:40:31.203Z,7.83
2019-06-10T12:43:05.060Z,5.33
2019-06-10T12:45:35.028Z,7.70
2019-06-10T12:48:06.946Z,7.12
2019-06-10T12:50:38.126Z,7.67
2019-06-10T12:53:09.213Z,6.60
2019-06-10T12:55:44.506Z,4.47
2019-06-10T12:58:12.968Z,5.55
2019-06-10T13:00:47.569Z,6.22
2019-06-10T13:03:18.705Z,4.30
2019-06-10T13:05:52.844Z,6.67
2019-06-10T13:08:23.787Z,8.23
2019-06-10T13:10:55.785Z,5.33
2019-06-10T13:13:29.281Z,4.67
2019-06-10T13:16:04.242Z,5.33
2019-06-10T13:18:32.509Z,7.72
2019-06-10T13:21:10.881Z,7.50
2019-06-10T13:23:36.508Z,6.62
2019-06-10T13:26:12.559Z,9.25
2019-06-10T13:28:40.034Z,6.60
2019-06-10T13:31:10.677Z,7.58
2019-06-10T13:33:42.886Z,5.87
2019-06-10T13:36:14.211Z,5.90
2019-06-10T13:38:45.542Z,6.30
2019-06-10T13:41:16.689Z,5.53
2019-06-10T13:43:47.255Z,5.55
2019-06-10T13:46:19.475Z,5.87
2019-06-10T13:48:52.168Z,5.05
2019-06-10T13:51:22.036Z,7.08
2019-06-10T13:53:53.744Z,5.72
2019-06-10T13:56:43.234Z,8.18
2019-06-10T13:58:57.126Z,6.03
2019-06-10T14:01:27.682Z,6.87
2019-06-10T14:04:00.295Z,5.40
2019-06-10T14:06:44.637Z,5.95
2019-06-10T14:09:06.822Z,7.08
2019-06-10T14:11:36.593Z,4.28
2019-06-10T14:14:09.463Z,7.80
2019-06-10T14:16:42.329Z,5.47
2019-06-10T14:19:16.328Z,5.95
2019-06-10T14:21:45.744Z,5.95
2019-06-10T14:24:17.831Z,4.90
2019-06-10T14:26:48.311Z,6.42
2019-06-10T14:29:19.310Z,6.90
2019-06-10T14:31:53.217Z,4.35
2019-06-10T14:34:23.228Z,5.45
2019-06-10T14:36:53.712Z,7.55
2019-06-10T14:39:24.172Z,7.22
2019-06-10T14:41:55.442Z,7.00
2019-06-10T14:44:26.960Z,6.25
2019-06-10T14:46:59.934Z,4.72
2019-06-10T14:49:32.974Z,6.08
2019-06-10T14:52:04.953Z,5.25
2019-06-10T14:54:35.813Z,6.20
2019-06-10T14:57:07.323Z,6.20
2019-06-10T14:59:37.957Z,7.08
2019-06-10T15:02:09.900Z,6.00
2019-06-10T15:04:42.570Z,9.13
2019-06-10T15:07:13.721Z,10.32
2019-06-10T15:09:44.378Z,6.92
2019-06-10T15:12:17.165Z,5.97
2019-06-10T15:14:46.988Z,7.72
2019-06-10T15:17:18.825Z,7.87
2019-06-10T15:19:49.680Z,6.00
2019-06-10T15:22:23.393Z,7.97
2019-06-10T15:24:53.305Z,9.35
2019-06-10T15:27:30.390Z,6.00
2019-06-10T15:29:57.114Z,6.70
2019-06-10T15:32:34.545Z,7.62
2019-06-10T15:35:00.173Z,8.05
2019-06-10T15:37:32.895Z,7.92
2019-06-10T15:40:04.046Z,5.10
2019-06-10T15:42:36.242Z,6.65
2019-06-10T15:45:08.178Z,5.65
2019-06-10T15:47:39.708Z,5.75
2019-06-10T15:50:12.791Z,5.28
2019-06-10T15:52:43.174Z,5.62
2019-06-10T15:55:42.422Z,12.13
2019-06-10T15:57:47.421Z,9.20
2019-06-10T16:00:24.508Z,4.80
2019-06-10T16:02:54.181Z,6.60
2019-06-10T16:05:25.347Z,3.43
2019-06-10T16:07:56.473Z,6.33
2019-06-10T16:10:27.943Z,7.10
2019-06-10T16:12:59.484Z,7.77
2019-06-10T16:15:29.980Z,10.70
2019-06-10T16:18:02.832Z,7.57
2019-06-10T16:20:33.248Z,8.47
2019-06-10T16:23:04.826Z,8.23
2019-06-10T16:25:35.841Z,8.07
2019-06-10T16:28:06.466Z,7.87
2019-06-10T16:30:37.285Z,9.43
2019-06-10T16:33:07.907Z,8.23
2019-06-10T16:35:38.880Z,8.07
2019-06-10T16:38:12.579Z,9.63
2019-06-10T16:40:43.176Z,7.40
2019-06-10T16:43:15.570Z,7.43
2019-06-10T16:45:47.251Z,6.30
2019-06-10T16:48:18.994Z,6.00
2019-06-10T16:50:54.055Z,5.73
2019-06-10T16:53:26.701Z,6.23
2019-06-10T16:55:56.020Z,7.07
2019-06-10T16:58:28.322Z,9.23
2019-06-10T17:00:59.564Z,6.10
2019-06-10T17:03:33.708Z,6.40
2019-06-10T17:06:05.023Z,6.73
2019-06-10T17:08:36.229Z,7.57
2019-06-10T17:11:08.108Z,9.17
2019-06-10T17:13:38.645Z,8.93
2019-06-10T17:16:12.537Z,10.33
2019-06-10T17:18:42.408Z,10.10
2019-06-10T17:21:13.302Z,9.07
2019-06-10T17:23:44.256Z,8.77
2019-06-10T17:26:14.829Z,9.20
2019-06-10T17:28:45.410Z,8.27
2019-06-10T17:31:15.983Z,8.60
2019-06-10T17:33:46.513Z,9.17
2019-06-10T17:36:17.536Z,10.23
2019-06-10T17:38:48.668Z,8.70
2019-06-10T17:41:21.302Z,8.43
2019-06-10T17:43:52.374Z,8.77
2019-06-10T17:46:24.990Z,10.07
2019-06-10T17:48:55.539Z,8.00
2019-06-10T17:51:27.524Z,9.83
2019-06-10T17:53:58.205Z,6.90
2019-06-10T17:56:31.079Z,6.53
2019-06-10T17:59:03.364Z,10.23
2019-06-10T18:01:35.815Z,9.63
2019-06-10T18:04:09.367Z,8.77
2019-06-10T18:06:42.489Z,7.83
2019-06-10T18:09:12.674Z,7.83
2019-06-10T18:11:43.689Z,6.70
2019-06-10T18:14:14.689Z,8.67
2019-06-10T18:16:45.750Z,8.30
2019-06-10T18:19:16.260Z,8.33
2019-06-10T18:21:49.076Z,8.57
2019-06-10T18:24:27.260Z,7.20
2019-06-10T18:26:56.809Z,7.67
2019-06-10T18:29:29.099Z,7.53
2019-06-10T18:32:03.211Z,7.00
2019-06-10T18:34:36.287Z,6.13
2019-06-10T18:37:05.615Z,7.37
2019-06-10T18:39:36.817Z,9.40
2019-06-10T18:42:07.624Z,5.87
2019-06-10T18:44:39.991Z,8.43
2019-06-10T18:47:13.261Z,6.60
2019-06-10T18:49:43.388Z,6.37
2019-06-10T18:52:13.976Z,7.27
2019-06-10T18:54:45.419Z,6.00
2019-06-10T18:57:16.490Z,7.63
2019-06-10T18:59:48.387Z,7.13
2019-06-10T19:02:22.682Z,7.60
2019-06-10T19:04:54.836Z,6.10
2019-06-10T19:07:25.281Z,5.30
2019-06-10T19:09:56.242Z,5.47
2019-06-10T19:12:29.088Z,5.33
2019-06-10T19:14:59.636Z,5.63
2019-06-10T19:17:34.876Z,5.30
2019-06-10T19:20:04.404Z,5.53
2019-06-10T19:22:36.341Z,6.77
2019-06-10T19:25:09.603Z,5.57
2019-06-10T19:27:44.411Z,5.87
2019-06-10T19:30:16.703Z,7.53
2019-06-10T19:32:48.668Z,5.13
2019-06-10T19:35:22.227Z,6.93
2019-06-10T19:37:52.373Z,8.80
2019-06-10T19:40:23.481Z,5.87
2019-06-10T19:42:55.199Z,6.17
2019-06-10T19:45:26.184Z,5.50
2019-06-10T19:47:57.402Z,6.87
2019-06-10T19:50:28.951Z,8.60
2019-06-10T19:53:02.481Z,7.03
2019-06-10T19:55:35.149Z,7.37
2019-06-10T19:58:10.292Z,7.80
2019-06-10T20:00:50.733Z,6.63
2019-06-10T20:03:16.268Z,6.97
2019-06-10T20:05:47.517Z,7.40
2019-06-10T20:08:19.182Z,6.03
2019-06-10T20:10:49.725Z,6.40
2019-06-10T20:13:22.524Z,7.33
2019-06-10T20:15:52.586Z,6.77
2019-06-10T20:18:23.603Z,5.47
2019-06-10T20:20:54.520Z,5.67
2019-06-10T20:23:25.033Z,6.20
2019-06-10T20:25:56.087Z,5.43
2019-06-10T20:28:27.553Z,6.53
2019-06-10T20:30:58.525Z,5.90
2019-06-10T20:33:36.328Z,6.33
2019-06-10T20:36:13.724Z,6.33
2019-06-10T20:38:40.067Z,5.67
2019-06-10T20:41:12.714Z,6.87
2019-06-10T20:43:45.903Z,5.87
2019-06-10T20:46:16.268Z,6.30
2019-06-10T20:48:49.763Z,6.70
2019-06-10T20:51:19.864Z,5.77
2019-06-10T20:53:50.920Z,6.97
2019-06-10T20:56:24.621Z,7.33
2019-06-10T20:58:56.680Z,6.70
2019-06-10T21:01:27.230Z,6.80
2019-06-10T21:03:57.807Z,5.63
2019-06-10T21:06:28.293Z,5.83
2019-06-10T21:09:02.753Z,6.90
2019-06-10T21:11:34.427Z,6.33
2019-06-10T21:14:05.756Z,5.67
2019-06-10T21:16:36.175Z,6.53
2019-06-10T21:19:06.695Z,8.13
2019-06-10T21:21:37.703Z,5.50
2019-06-10T21:24:08.839Z,5.17
2019-06-10T21:26:40.552Z,6.07
2019-06-10T21:29:12.892Z,5.17
2019-06-10T21:31:47.002Z,4.60
2019-06-10T21:34:17.259Z,7.13
2019-06-10T21:36:49.470Z,5.67
2019-06-10T21:39:20.505Z,5.63
2019-06-10T21:41:54.157Z,4.87
2019-06-10T21:44:24.960Z,6.53
2019-06-10T21:46:55.844Z,6.83
2019-06-10T21:49:26.336Z,5.73
2019-06-10T21:51:58.216Z,5.23
2019-06-10T21:54:28.752Z,4.97
2019-06-10T21:57:02.543Z,4.47
2019-06-10T21:59:35.003Z,5.93
2019-06-10T22:02:06.388Z,4.73
2019-06-10T22:04:38.014Z,4.63
2019-06-10T22:07:08.505Z,4.47
2019-06-10T22:09:39.477Z,4.77
2019-06-10T22:12:11.942Z,4.80
2019-06-10T22:14:44.139Z,4.83
2019-06-10T22:17:15.524Z,4.10
2019-06-10T22:19:46.881Z,5.00
2019-06-10T22:22:17.397Z,4.40
2019-06-10T22:24:48.830Z,5.23
2019-06-10T22:27:22.253Z,4.00
2019-06-10T22:29:53.973Z,5.07
2019-06-10T22:32:25.028Z,4.93
2019-06-10T22:34:57.003Z,4.57
2019-06-10T22:37:28.555Z,4.53
2019-06-10T22:39:59.533Z,5.00
2019-06-10T22:42:32.757Z,4.67
2019-06-10T22:45:04.264Z,4.47
2019-06-10T22:47:34.924Z,6.70
2019-06-10T22:50:07.519Z,5.07
2019-06-10T22:52:38.365Z,5.87
2019-06-10T22:55:09.196Z,5.70
2019-06-10T22:57:43.736Z,6.00
2019-06-10T23:00:13.705Z,6.37
2019-06-10T23:02:44.185Z,5.17
2019-06-10T23:05:17.253Z,8.20
2019-06-10T23:07:48.191Z,6.43
2019-06-10T23:10:19.353Z,6.77
2019-06-10T23:12:51.310Z,5.57
2019-06-10T23:15:23.470Z,5.67
2019-06-10T23:17:56.953Z,5.30
2019-06-10T23:20:26.683Z,6.00
2019-06-10T23:22:58.839Z,5.07
2019-06-10T23:25:29.837Z,6.97
2019-06-10T23:28:01.836Z,5.40
2019-06-10T23:30:33.048Z,6.43
2019-06-10T23:33:03.676Z,5.73
2019-06-10T23:35:34.589Z,8.00
2019-06-10T23:38:05.381Z,7.50
2019-06-10T23:40:35.789Z,8.33
2019-06-10T23:43:06.284Z,6.57
2019-06-10T23:45:37.067Z,7.37
2019-06-10T23:48:08.020Z,9.83
2019-06-10T23:50:38.512Z,8.23
2019-06-10T23:53:09.044Z,7.97
2019-06-10T23:55:39.535Z,8.90
2019-06-10T23:58:12.634Z,8.33
